Time;durP1;ratioP1;P1;durP2;ratioP2;P2;SDS_P1;SDS_P2;PMS_P1;PMS_P2;Temp;Humidity;BMP_temperature;BMP_pressure;BME280_temperature;BME280_humidity;BME280_pressure;Samples;Min_cycle;Max_cycle;Signal;HPM_P1;HPM_P2
2023/05/13 00:02:07;;;;;;;;;10.33;7.33;;;;;15.64;100.00;101576.53;5052728;28;45440;-77
2023/05/13 00:04:32;;;;;;;;;11.00;8.00;;;;;15.64;100.00;101576.53;5056888;28;45398;-82
2023/05/13 00:06:57;;;;;;;;;9.33;6.33;;;;;15.63;100.00;101581.84;5051823;28;45202;-80
2023/05/13 00:09:23;;;;;;;;;9.00;8.00;;;;;15.64;100.00;101579.19;5052474;28;68913;-79
2023/05/13 00:11:48;;;;;;;;;9.67;9.00;;;;;15.64;100.00;101587.19;5051018;28;63498;-78
2023/05/13 00:14:13;;;;;;;;;9.00;7.00;;;;;15.65;100.00;101580.97;5042563;28;45723;-85
2023/05/13 00:16:39;;;;;;;;;7.33;7.33;;;;;15.64;100.00;101579.19;5051242;28;45351;-78
2023/05/13 00:19:04;;;;;;;;;9.33;9.33;;;;;15.62;100.00;101577.38;5047159;28;45860;-78
2023/05/13 00:21:30;;;;;;;;;8.67;8.67;;;;;15.63;100.00;101584.53;5051142;28;45511;-79
2023/05/13 00:23:56;;;;;;;;;10.00;8.33;;;;;15.59;100.00;101588.91;5043252;28;45360;-80
2023/05/13 00:26:21;;;;;;;;;8.00;7.67;;;;;15.57;100.00;101588.03;5034734;28;45412;-80
2023/05/13 00:28:46;;;;;;;;;8.33;7.67;;;;;15.54;100.00;101596.00;5055645;28;46340;-81
2023/05/13 00:31:12;;;;;;;;;8.67;8.67;;;;;15.50;100.00;101590.66;5039749;28;62526;-78
2023/05/13 00:33:37;;;;;;;;;9.00;9.00;;;;;15.48;100.00;101589.75;5047557;28;63175;-78
2023/05/13 00:36:03;;;;;;;;;10.00;8.00;;;;;15.49;100.00;101586.22;5054622;28;62170;-78
2023/05/13 00:38:28;;;;;;;;;9.00;7.67;;;;;15.47;100.00;101588.88;5047854;28;47557;-78
2023/05/13 00:40:53;;;;;;;;;10.00;8.00;;;;;15.45;100.00;101588.88;5041021;28;66318;-78
2023/05/13 00:43:19;;;;;;;;;9.33;8.67;;;;;15.42;100.00;101596.84;5054085;28;61910;-78
2023/05/13 00:45:44;;;;;;;;;6.67;6.67;;;;;15.39;100.00;101588.88;5054592;28;45418;-83
2023/05/13 00:48:09;;;;;;;;;10.00;9.00;;;;;15.40;100.00;101589.75;5051362;28;46447;-80
2023/05/13 00:50:35;;;;;;;;;9.33;9.33;;;;;15.37;100.00;101589.72;5036738;28;69345;-81
2023/05/13 00:53:02;;;;;;;;;10.67;8.33;;;;;15.31;100.00;101590.59;5042594;28;45437;-84
2023/05/13 00:55:27;;;;;;;;;12.33;8.67;;;;;15.27;100.00;101582.59;5048746;28;45555;-84
2023/05/13 00:57:53;;;;;;;;;11.67;7.33;;;;;15.22;100.00;101593.22;5041870;28;69243;-83
2023/05/13 01:00:18;;;;;;;;;9.00;8.67;;;;;15.16;100.00;101585.22;5045934;28;65481;-78
2023/05/13 01:03:02;;;;;;;;;10.67;9.33;;;;;15.14;100.00;101594.97;5040160;28;45193;-80
2023/05/13 01:05:41;;;;;;;;;9.00;7.00;;;;;15.09;100.00;101594.94;5038390;28;45508;-80
2023/05/13 01:08:19;;;;;;;;;11.00;9.00;;;;;15.06;100.00;101597.56;5040356;28;46403;-86
2023/05/13 01:10:53;;;;;;;;;8.00;6.67;;;;;15.06;100.00;101597.56;5051716;28;45416;-78
2023/05/13 01:13:23;;;;;;;;;9.00;8.67;;;;;15.01;100.00;101591.34;5037462;28;45423;-78
2023/05/13 01:15:53;;;;;;;;;7.33;7.33;;;;;14.99;100.00;101598.44;5059756;28;45272;-82
2023/05/13 01:18:32;;;;;;;;;9.33;8.00;;;;;14.94;100.00;101592.22;5053685;28;45389;-83
2023/05/13 01:21:00;;;;;;;;;9.33;9.33;;;;;14.87;100.00;101585.09;5032062;28;45483;-78
2023/05/13 01:23:25;;;;;;;;;9.33;8.00;;;;;14.84;100.00;101585.06;5047451;28;45399;-78
2023/05/13 01:25:50;;;;;;;;;9.00;8.67;;;;;14.80;100.00;101585.91;5052342;28;54845;-80
2023/05/13 01:28:16;;;;;;;;;14.33;10.00;;;;;14.78;100.00;101585.91;5051835;28;47571;-78
2023/05/13 01:30:41;;;;;;;;;8.33;7.67;;;;;14.76;100.00;101582.38;5049837;28;63488;-79
2023/05/13 01:33:06;;;;;;;;;11.00;7.67;;;;;14.74;100.00;101580.56;5048922;28;66088;-86
2023/05/13 01:35:32;;;;;;;;;9.67;8.67;;;;;14.74;100.00;101591.19;5056976;28;60231;-84
2023/05/13 01:37:59;;;;;;;;;8.00;8.00;;;;;14.74;100.00;101599.16;5035406;28;45384;-82
2023/05/13 01:40:24;;;;;;;;;8.00;8.00;;;;;14.71;100.00;101592.09;5048015;28;45310;-80
2023/05/13 01:42:50;;;;;;;;;10.00;9.00;;;;;14.68;100.00;101598.25;5040097;28;63077;-78
2023/05/13 01:45:15;;;;;;;;;9.00;9.00;;;;;14.65;100.00;101606.22;5047313;28;57738;-80
2023/05/13 01:47:41;;;;;;;;;9.67;8.33;;;;;14.62;100.00;101598.22;5038214;28;50021;-84
2023/05/13 01:50:07;;;;;;;;;7.00;7.00;;;;;14.59;100.00;101595.53;5056141;28;67445;-78
2023/05/13 01:52:32;;;;;;;;;8.00;8.00;;;;;14.58;100.00;101598.19;5052257;28;45217;-78
2023/05/13 01:54:58;;;;;;;;;8.33;7.00;;;;;14.58;100.00;101603.50;5037058;28;45328;-78
2023/05/13 01:57:24;;;;;;;;;7.33;7.33;;;;;14.54;100.00;101604.34;5058125;28;45636;-83
2023/05/13 01:59:49;;;;;;;;;9.00;8.00;;;;;14.55;100.00;101609.69;5053353;28;45240;-80
2023/05/13 02:02:15;;;;;;;;;10.00;9.00;;;;;14.52;100.00;101609.66;5045464;28;45410;-85
2023/05/13 02:04:40;;;;;;;;;7.33;7.33;;;;;14.52;100.00;101614.97;5055449;28;57000;-78
2023/05/13 02:07:05;;;;;;;;;8.33;7.33;;;;;14.49;100.00;101609.66;5046682;28;46320;-81
2023/05/13 02:09:31;;;;;;;;;9.33;8.00;;;;;14.47;100.00;101608.75;5046457;28;66753;-81
2023/05/13 02:11:56;;;;;;;;;9.33;8.00;;;;;14.48;100.00;101602.53;5045181;28;45494;-78
2023/05/13 02:14:21;;;;;;;;;9.67;9.33;;;;;14.48;100.00;101601.66;5040000;28;45335;-78
2023/05/13 02:16:47;;;;;;;;;11.33;8.00;;;;;14.46;100.00;101604.28;5046439;28;69804;-81
2023/05/13 02:19:12;;;;;;;;;12.33;8.33;;;;;14.47;100.00;101598.09;5053063;28;46522;-81
2023/05/13 02:21:37;;;;;;;;;8.00;6.33;;;;;14.46;100.00;101598.97;5046819;28;62896;-80
2023/05/13 02:24:03;;;;;;;;;10.67;9.00;;;;;14.45;100.00;101598.97;5057161;28;45460;-78
2023/05/13 02:26:28;;;;;;;;;9.33;7.67;;;;;14.42;100.00;101603.34;5048167;28;48519;-83
2023/05/13 02:28:54;;;;;;;;;12.00;8.00;;;;;14.41;100.00;101596.25;5045304;28;62365;-78
2023/05/13 02:31:19;;;;;;;;;10.67;8.67;;;;;14.38;100.00;101608.63;5028963;28;45436;-78
2023/05/13 02:33:45;;;;;;;;;11.00;7.67;;;;;14.36;100.00;101611.28;5045246;28;60814;-81
2023/05/13 02:36:10;;;;;;;;;7.33;7.00;;;;;14.32;100.00;101604.16;5033983;28;47471;-86
2023/05/13 02:38:35;;;;;;;;;10.67;8.00;;;;;14.33;100.00;101608.63;5040936;28;66840;-79
2023/05/13 02:41:01;;;;;;;;;11.67;11.00;;;;;14.32;100.00;101603.28;5056508;28;45718;-78
2023/05/13 02:43:27;;;;;;;;;11.33;9.33;;;;;14.33;100.00;101610.38;5048212;28;58922;-77
2023/05/13 02:45:52;;;;;;;;;11.67;11.67;;;;;14.34;100.00;101597.09;5041766;28;46404;-79
2023/05/13 02:48:18;;;;;;;;;13.00;11.00;;;;;14.37;100.00;101597.13;5056495;28;58821;-82
2023/05/13 02:50:43;;;;;;;;;11.67;11.00;;;;;14.39;100.00;101602.47;5053954;28;63152;-79
2023/05/13 02:53:08;;;;;;;;;14.33;12.67;;;;;14.41;100.00;101595.38;5040387;28;45383;-79
2023/05/13 02:55:34;;;;;;;;;13.33;13.33;;;;;14.44;100.00;101598.06;5050791;28;65734;-80
2023/05/13 02:57:59;;;;;;;;;13.00;11.33;;;;;14.44;100.00;101603.38;5052702;28;45501;-84
2023/05/13 03:00:25;;;;;;;;;14.33;13.00;;;;;14.45;100.00;101602.50;5049026;28;45314;-78
2023/05/13 03:02:50;;;;;;;;;15.00;13.00;;;;;14.43;100.00;101604.25;5048468;28;59369;-85
2023/05/13 03:05:15;;;;;;;;;13.67;13.33;;;;;14.44;100.00;101606.03;5053533;28;69560;-78
2023/05/13 03:07:41;;;;;;;;;23.00;18.50;;;;;14.44;100.00;101611.34;5047003;28;67290;-77
2023/05/13 03:10:07;;;;;;;;;14.00;14.00;;;;;14.42;100.00;101605.13;5047011;28;45981;-84
2023/05/13 03:12:32;;;;;;;;;23.75;20.00;;;;;14.43;100.00;101609.56;5042049;28;45553;-83
2023/05/13 03:14:58;;;;;;;;;14.67;13.33;;;;;14.42;100.00;101611.31;5041415;28;67361;-79
2023/05/13 03:17:24;;;;;;;;;17.33;17.33;;;;;14.46;100.00;101609.59;5051651;28;45349;-78
2023/05/13 03:19:49;;;;;;;;;19.33;17.67;;;;;14.49;100.00;101604.34;5054865;28;45469;-80
2023/05/13 03:22:15;;;;;;;;;19.00;17.33;;;;;14.56;100.00;101610.59;5055753;28;45251;-80
2023/05/13 03:24:41;;;;;;;;;22.00;19.67;;;;;14.57;100.00;101605.28;5035587;28;46532;-78
2023/05/13 03:27:06;;;;;;;;;25.25;19.00;;;;;14.63;100.00;101612.41;5049447;28;45406;-78
2023/05/13 03:29:32;;;;;;;;;26.25;23.50;;;;;14.67;100.00;101609.78;5044244;28;62172;-79
2023/05/13 03:31:57;;;;;;;;;27.25;23.25;;;;;14.68;100.00;101608.88;5046059;28;45298;-78
2023/05/13 03:34:23;;;;;;;;;32.25;26.75;;;;;14.72;100.00;101612.47;5047909;28;69900;-83
2023/05/13 03:36:48;;;;;;;;;38.25;34.25;;;;;14.73;100.00;101619.56;5048514;28;60418;-81
2023/05/13 03:39:13;;;;;;;;;43.25;36.25;;;;;14.73;100.00;101605.38;5044175;28;45134;-78
2023/05/13 03:41:39;;;;;;;;;53.75;39.50;;;;;14.74;100.00;101616.00;5049232;28;60517;-78
2023/05/13 03:44:04;;;;;;;;;50.00;38.75;;;;;14.74;100.00;101623.09;5039736;28;47866;-78
2023/05/13 03:46:30;;;;;;;;;51.50;40.50;;;;;14.74;100.00;101624.00;5056708;28;45419;-80
2023/05/13 03:48:56;;;;;;;;;50.50;40.00;;;;;14.75;100.00;101622.22;5055985;28;45318;-80
2023/05/13 03:51:21;;;;;;;;;51.25;41.25;;;;;14.75;100.00;101624.88;5032716;28;61921;-82
2023/05/13 03:53:47;;;;;;;;;53.00;42.00;;;;;14.74;100.00;101616.00;5049568;28;62323;-85
2023/05/13 03:56:13;;;;;;;;;50.25;41.25;;;;;14.73;100.00;101616.00;5037797;28;45363;-78
2023/05/13 03:58:38;;;;;;;;;56.75;43.25;;;;;14.75;100.00;101622.22;5050392;28;45328;-80
2023/05/13 04:01:04;;;;;;;;;54.75;42.00;;;;;14.75;100.00;101622.22;5047870;28;45484;-79
2023/05/13 04:03:30;;;;;;;;;56.25;45.00;;;;;14.75;100.00;101616.91;5052137;28;45880;-82
2023/05/13 04:05:55;;;;;;;;;55.50;44.25;;;;;14.77;100.00;101625.78;5048485;28;45320;-79
2023/05/13 04:08:20;;;;;;;;;57.00;44.50;;;;;14.75;100.00;101627.53;5046078;28;45413;-80
2023/05/13 04:10:46;;;;;;;;;61.25;46.75;;;;;14.74;100.00;101633.72;5046025;28;52632;-78
2023/05/13 04:13:11;;;;;;;;;56.25;44.50;;;;;14.76;100.00;101645.28;5040434;28;45475;-78
2023/05/13 04:15:37;;;;;;;;;58.25;44.25;;;;;14.74;100.00;101637.28;5042341;28;66142;-82
2023/05/13 04:18:02;;;;;;;;;57.00;44.25;;;;;14.76;100.00;101639.97;5052023;28;61440;-79
2023/05/13 04:20:28;;;;;;;;;57.50;44.25;;;;;14.78;100.00;101647.06;5055470;28;45375;-85
2023/05/13 04:22:53;;;;;;;;;55.50;43.75;;;;;14.78;100.00;101648.84;5050599;28;46632;-79
2023/05/13 04:25:18;;;;;;;;;58.00;43.00;;;;;14.77;100.00;101644.41;5049114;28;68533;-79
2023/05/13 04:27:46;;;;;;;;;60.00;44.25;;;;;14.78;100.00;101644.41;5046719;28;45193;-80
2023/05/13 04:30:12;;;;;;;;;55.25;44.00;;;;;14.78;100.00;101648.84;5047487;28;45276;-78
2023/05/13 04:32:38;;;;;;;;;54.50;42.25;;;;;14.79;100.00;101650.59;5035940;28;45662;-78
2023/05/13 04:35:03;;;;;;;;;53.75;42.50;;;;;14.79;100.00;101651.50;5032951;28;45549;-83
2023/05/13 04:37:29;;;;;;;;;55.00;45.00;;;;;14.79;100.00;101650.59;5045785;28;45542;-80
2023/05/13 04:39:54;;;;;;;;;53.75;44.25;;;;;14.80;100.00;101633.78;5038506;28;52110;-80
2023/05/13 04:42:19;;;;;;;;;53.00;40.00;;;;;14.80;100.00;101639.09;5044997;28;67828;-79
2023/05/13 04:44:45;;;;;;;;;56.00;42.00;;;;;14.79;100.00;101639.97;5045131;28;45134;-83
2023/05/13 04:47:10;;;;;;;;;53.00;42.25;;;;;14.80;100.00;101647.94;5056021;28;60168;-77
2023/05/13 04:49:35;;;;;;;;;55.00;42.25;;;;;14.80;100.00;101657.69;5062063;28;49761;-83
2023/05/13 04:52:02;;;;;;;;;53.75;43.00;;;;;14.82;100.00;101661.28;5059971;28;71433;-78
2023/05/13 04:54:27;;;;;;;;;56.25;44.25;;;;;14.80;100.00;101657.69;5043455;28;45197;-82
2023/05/13 04:56:53;;;;;;;;;50.00;39.75;;;;;14.82;100.00;101661.28;5044607;28;45466;-77
2023/05/13 04:59:18;;;;;;;;;57.00;45.00;;;;;14.82;100.00;101662.16;5039260;28;62720;-84
2023/05/13 05:01:44;;;;;;;;;54.50;42.00;;;;;14.84;100.00;101676.34;5056429;28;45654;-81
2023/05/13 05:04:10;;;;;;;;;58.00;46.00;;;;;14.85;100.00;101677.22;5049137;28;45418;-79
2023/05/13 05:06:35;;;;;;;;;53.00;42.75;;;;;14.88;100.00;101678.16;5043744;28;45490;-78
2023/05/13 05:09:00;;;;;;;;;54.25;43.25;;;;;14.89;100.00;101679.94;5051179;28;63725;-84
2023/05/13 05:11:26;;;;;;;;;54.75;42.00;;;;;14.88;100.00;101683.47;5052229;28;69334;-82
2023/05/13 05:13:51;;;;;;;;;55.75;43.50;;;;;14.88;100.00;101678.16;5044145;28;64055;-77
2023/05/13 05:16:16;;;;;;;;;54.50;42.25;;;;;14.90;100.00;101689.69;5046669;28;45481;-78
2023/05/13 05:18:42;;;;;;;;;55.75;42.50;;;;;14.91;100.00;101694.16;5059421;28;50563;-82
2023/05/13 05:21:08;;;;;;;;;50.00;41.75;;;;;14.91;100.00;101701.19;5057460;28;45817;-83
2023/05/13 05:23:33;;;;;;;;;50.25;40.00;;;;;14.93;100.00;101702.13;5056596;28;45687;-81
2023/05/13 05:25:59;;;;;;;;;55.00;41.75;;;;;14.95;100.00;101695.03;5055823;28;45388;-77
2023/05/13 05:28:24;;;;;;;;;51.50;40.75;;;;;14.94;100.00;101707.44;5062327;28;45215;-77
2023/05/13 05:30:50;;;;;;;;;48.00;39.00;;;;;14.97;100.00;101706.59;5053298;28;46615;-78
2023/05/13 05:33:16;;;;;;;;;52.50;41.25;;;;;14.99;100.00;101718.13;5051714;28;45359;-84
2023/05/13 05:35:41;;;;;;;;;51.25;41.75;;;;;14.99;100.00;101711.91;5059862;28;45450;-78
2023/05/13 05:38:07;;;;;;;;;54.25;43.00;;;;;15.00;100.00;101719.00;5048744;28;62225;-78
2023/05/13 05:40:35;;;;;;;;;48.50;40.50;;;;;15.02;100.00;101715.50;5044960;28;46478;-78
2023/05/13 05:43:01;;;;;;;;;50.75;40.50;;;;;15.03;100.00;101714.59;5044256;28;45397;-78
2023/05/13 05:45:27;;;;;;;;;55.00;42.00;;;;;15.05;100.00;101723.47;5062283;28;45252;-77
2023/05/13 05:47:54;;;;;;;;;43.25;37.00;;;;;15.06;100.00;101724.38;5056041;28;45300;-78
2023/05/13 05:50:19;;;;;;;;;52.50;41.25;;;;;15.03;100.00;101727.03;5041298;28;46747;-78
2023/05/13 05:52:44;;;;;;;;;48.00;38.25;;;;;15.02;100.00;101728.78;5034802;28;45364;-79
2023/05/13 05:55:10;;;;;;;;;49.00;39.75;;;;;15.00;100.00;101725.22;5033409;28;45145;-78
2023/05/13 05:57:35;;;;;;;;;52.50;39.25;;;;;15.01;100.00;101732.31;5051808;28;57848;-77
2023/05/13 06:00:00;;;;;;;;;47.00;38.50;;;;;14.97;100.00;101722.56;5050409;28;66304;-79
2023/05/13 06:02:26;;;;;;;;;46.25;39.00;;;;;14.99;100.00;101738.50;5055178;28;64243;-82
2023/05/13 06:04:51;;;;;;;;;51.50;40.50;;;;;15.00;100.00;101732.31;5057025;28;63712;-82
2023/05/13 06:07:16;;;;;;;;;48.75;38.75;;;;;15.05;100.00;101742.09;5051302;28;60234;-81
2023/05/13 06:09:42;;;;;;;;;52.00;40.75;;;;;15.10;100.00;101740.34;5055854;28;64741;-78
2023/05/13 06:12:07;;;;;;;;;47.75;39.00;;;;;15.15;100.00;101741.28;5056366;28;57855;-80
2023/05/13 06:14:33;;;;;;;;;49.25;39.75;;;;;15.23;100.00;101745.75;5052414;28;45211;-77
2023/05/13 06:16:58;;;;;;;;;54.25;42.25;;;;;15.26;100.00;101752.00;5039652;28;45546;-82
2023/05/13 06:19:23;;;;;;;;;54.25;43.00;;;;;15.31;100.00;101752.03;5047434;28;69438;-82
2023/05/13 06:21:49;;;;;;;;;48.50;38.25;;;;;15.34;100.00;101747.63;5047652;28;65924;-81
2023/05/13 06:24:14;;;;;;;;;47.75;38.00;;;;;15.38;100.00;101751.16;5046504;28;45410;-82
2023/05/13 06:26:40;;;;;;;;;52.50;39.25;;;;;15.39;100.00;101750.28;5044827;28;60513;-76
2023/05/13 06:29:05;;;;;;;;;49.00;39.75;;;;;15.40;100.00;101757.41;5044491;28;46440;-80
2023/05/13 06:31:30;;;;;;;;;55.75;40.25;;;;;15.45;100.00;101766.31;5056329;28;63079;-77
2023/05/13 06:33:55;;;;;;;;;48.50;38.00;;;;;15.50;100.00;101764.56;5037739;28;59324;-76
2023/05/13 06:36:21;;;;;;;;;47.75;37.75;;;;;15.54;100.00;101774.34;5055191;28;61755;-81
2023/05/13 06:38:46;;;;;;;;;50.75;39.25;;;;;15.55;100.00;101773.44;5057069;28;46053;-80
2023/05/13 06:41:12;;;;;;;;;45.50;39.25;;;;;15.59;100.00;101780.56;5055807;28;45476;-78
2023/05/13 06:43:37;;;;;;;;;48.25;40.75;;;;;15.57;100.00;101769.03;5037139;28;45372;-81
2023/05/13 06:46:03;;;;;;;;;49.00;40.50;;;;;15.60;100.00;101777.03;5057946;28;45469;-83
2023/05/13 06:48:28;;;;;;;;;47.50;39.75;;;;;15.61;100.00;101783.28;5050426;28;45983;-78
2023/05/13 06:50:54;;;;;;;;;50.25;39.00;;;;;15.61;100.00;101785.94;5052091;28;45551;-79
2023/05/13 06:53:19;;;;;;;;;48.25;37.25;;;;;15.65;100.00;101785.06;5050340;28;52875;-79
2023/05/13 06:55:45;;;;;;;;;47.50;37.75;;;;;15.68;100.00;101780.66;5051214;28;45501;-83
2023/05/13 06:58:10;;;;;;;;;49.00;38.50;;;;;15.68;100.00;101770.00;5042453;28;45529;-76
2023/05/13 07:00:37;;;;;;;;;52.25;41.00;;;;;15.75;100.00;101770.03;5045767;28;45257;-77
2023/05/13 07:03:03;;;;;;;;;54.25;42.75;;;;;15.79;100.00;101785.16;5142178;22;45339;-76
2023/05/13 07:05:29;;;;;;;;;47.75;39.25;;;;;15.83;100.00;101787.84;5036643;28;45255;-76
2023/05/13 07:07:55;;;;;;;;;52.50;41.75;;;;;15.85;100.00;101783.41;5028181;28;45682;-76
2023/05/13 07:10:20;;;;;;;;;46.50;40.00;;;;;15.88;100.00;101786.09;5030709;28;45511;-76
2023/05/13 07:12:45;;;;;;;;;51.50;40.50;;;;;15.96;100.00;101786.13;5026228;28;61140;-76
2023/05/13 07:15:11;;;;;;;;;55.50;42.50;;;;;16.00;100.00;101785.25;5035029;28;58762;-79
2023/05/13 07:17:36;;;;;;;;;48.75;40.25;;;;;16.05;100.00;101785.28;5034360;28;46433;-79
2023/05/13 07:20:02;;;;;;;;;51.75;41.00;;;;;16.07;100.00;101786.16;5032298;28;45418;-77
2023/05/13 07:22:27;;;;;;;;;54.50;42.75;;;;;16.09;100.00;101790.63;5032319;28;45615;-73
2023/05/13 07:24:53;;;;;;;;;51.50;40.50;;;;;16.14;100.00;101787.94;5033132;28;63223;-72
2023/05/13 07:27:19;;;;;;;;;50.50;41.50;;;;;16.18;100.00;101787.09;5033477;28;46396;-73
2023/05/13 07:29:44;;;;;;;;;55.00;41.00;;;;;16.26;100.00;101792.44;5028019;28;45418;-75
2023/05/13 07:32:09;;;;;;;;;51.50;39.00;;;;;16.29;100.00;101788.00;5022495;28;65200;-73
2023/05/13 07:34:35;;;;;;;;;53.75;42.00;;;;;16.37;100.00;101793.38;5028399;28;45508;-75
2023/05/13 07:37:00;;;;;;;;;54.25;42.25;;;;;16.43;100.00;101796.03;5022222;28;47466;-77
2023/05/13 07:39:26;;;;;;;;;52.75;40.25;;;;;16.50;100.00;101790.72;5031379;28;57479;-79
2023/05/13 07:41:51;;;;;;;;;50.50;39.50;;;;;16.57;100.00;101793.41;5035379;28;45356;-80
2023/05/13 07:44:16;;;;;;;;;51.25;38.75;;;;;16.64;100.00;101798.75;5033258;28;45448;-77
2023/05/13 07:46:42;;;;;;;;;51.00;39.50;;;;;16.66;100.00;101793.41;5023988;28;47092;-78
2023/05/13 07:49:08;;;;;;;;;54.00;41.00;;;;;16.71;100.00;101795.22;5029656;28;45449;-77
2023/05/13 07:51:34;;;;;;;;;55.50;43.25;;;;;16.80;100.00;101801.47;5035316;28;45571;-77
2023/05/13 07:54:00;;;;;;;;;54.00;43.75;;;;;16.87;100.00;101793.47;5035898;28;45312;-78
2023/05/13 07:56:25;;;;;;;;;54.75;40.75;;;;;16.99;100.00;101801.50;5032237;28;61906;-79
2023/05/13 07:58:50;;;;;;;;;49.25;40.25;;;;;17.06;100.00;101801.47;5026686;28;45356;-74
2023/05/13 08:01:16;;;;;;;;;52.25;41.25;;;;;17.12;100.00;101802.38;5034018;28;45443;-73
2023/05/13 08:03:41;;;;;;;;;50.50;38.75;;;;;17.22;100.00;101816.59;5032535;28;45518;-73
2023/05/13 08:06:07;;;;;;;;;47.00;38.75;;;;;17.33;100.00;101808.59;5031671;28;48791;-74
2023/05/13 08:08:32;;;;;;;;;52.75;40.00;;;;;17.39;100.00;101809.47;5023755;28;68008;-74
2023/05/13 08:10:57;;;;;;;;;49.25;39.50;;;;;17.37;100.00;101805.03;5031954;28;45417;-75
2023/05/13 08:13:23;;;;;;;;;54.00;42.00;;;;;17.42;100.00;101811.25;5028896;28;62167;-73
2023/05/13 08:15:48;;;;;;;;;49.75;40.00;;;;;17.50;100.00;101812.09;5030624;28;47351;-73
2023/05/13 08:18:14;;;;;;;;;55.25;43.50;;;;;17.55;100.00;101804.97;5024445;28;62685;-73
2023/05/13 08:20:39;;;;;;;;;46.25;38.75;;;;;17.57;100.00;101803.19;5025362;28;45418;-73
2023/05/13 08:23:05;;;;;;;;;53.75;42.75;;;;;17.57;100.00;101802.28;5023305;28;45505;-73
2023/05/13 08:25:30;;;;;;;;;49.25;41.00;;;;;17.58;100.00;101806.72;5028868;28;69672;-72
2023/05/13 08:27:56;;;;;;;;;53.00;42.00;;;;;17.64;100.00;101812.97;5033868;28;66516;-75
2023/05/13 08:30:21;;;;;;;;;50.50;42.00;;;;;17.69;100.00;101816.53;5035729;28;45284;-73
2023/05/13 08:32:47;;;;;;;;;53.50;42.00;;;;;17.72;100.00;101810.28;5032243;28;63848;-73
2023/05/13 08:35:12;;;;;;;;;57.50;42.00;;;;;17.74;100.00;101804.09;5033033;28;51355;-73
2023/05/13 08:37:38;;;;;;;;;52.25;42.00;;;;;17.69;100.00;101810.31;5032563;28;45482;-73
2023/05/13 08:40:04;;;;;;;;;52.75;43.00;;;;;17.69;100.00;101808.50;5031143;28;45366;-73
2023/05/13 08:42:35;;;;;;;;;54.75;44.25;;;;;17.76;100.00;101812.97;5030460;28;45520;-73
2023/05/13 08:45:06;;;;;;;;;51.00;40.25;;;;;17.87;100.00;101814.72;5034168;28;46204;-73
2023/05/13 08:47:40;;;;;;;;;56.25;44.25;;;;;17.94;100.00;101811.13;5023776;28;45375;-72
2023/05/13 08:50:06;;;;;;;;;52.75;41.25;;;;;17.95;100.00;101807.56;5036185;28;45620;-73
2023/05/13 08:52:32;;;;;;;;;52.75;43.00;;;;;17.85;100.00;101817.41;5035260;28;45746;-75
2023/05/13 08:54:58;;;;;;;;;55.75;43.50;;;;;17.71;100.00;101822.75;5031289;28;55801;-73
2023/05/13 08:57:23;;;;;;;;;56.50;43.00;;;;;17.60;100.00;101815.66;5029193;28;45333;-73
2023/05/13 08:59:49;;;;;;;;;52.75;40.75;;;;;17.67;100.00;101809.41;5027921;28;47650;-73
2023/05/13 09:02:14;;;;;;;;;56.25;43.50;;;;;17.65;100.00;101811.19;5037663;28;45484;-77
2023/05/13 09:04:41;;;;;;;;;52.75;42.50;;;;;17.63;100.00;101813.88;5036003;28;68458;-78
2023/05/13 09:07:06;;;;;;;;;52.00;41.50;;;;;17.62;100.00;101804.06;5033202;28;45421;-82
2023/05/13 09:09:32;;;;;;;;;49.75;41.75;;;;;17.67;100.00;101812.06;5034633;28;45476;-78
2023/05/13 09:11:57;;;;;;;;;53.25;42.50;;;;;17.70;100.00;101812.97;5033953;28;45351;-80
2023/05/13 09:14:28;;;;;;;;;52.25;41.25;;;;;17.74;100.00;101806.75;5022836;28;72059;-77
2023/05/13 09:16:55;;;;;;;;;51.00;39.50;;;;;17.79;100.00;101812.09;5029755;28;45519;-77
2023/05/13 09:19:22;;;;;;;;;50.25;42.00;;;;;17.88;100.00;101811.16;5034579;28;45466;-78
2023/05/13 09:21:52;;;;;;;;;52.00;42.00;;;;;18.02;100.00;101812.00;5050569;28;45374;-80
2023/05/13 09:24:17;;;;;;;;;48.75;39.75;;;;;18.19;100.00;101823.50;5026083;28;46778;-78
2023/05/13 09:26:44;;;;;;;;;49.00;40.00;;;;;18.35;100.00;101816.28;5032376;28;45711;-77
2023/05/13 09:29:28;;;;;;;;;51.50;39.75;;;;;18.46;100.00;101810.88;5034941;28;45528;-80
2023/05/13 09:31:56;;;;;;;;;54.75;42.00;;;;;18.54;100.00;101826.00;5033018;28;45514;-79
2023/05/13 09:34:33;;;;;;;;;50.00;40.50;;;;;18.60;100.00;101822.41;5032701;28;46359;-78
2023/05/13 09:37:05;;;;;;;;;55.00;42.75;;;;;18.63;100.00;101829.50;5024095;28;45427;-78
2023/05/13 09:39:32;;;;;;;;;55.25;43.25;;;;;18.69;100.00;101822.34;5038363;28;45543;-78
2023/05/13 09:41:59;;;;;;;;;47.75;40.25;;;;;18.76;100.00;101818.75;5029875;28;45225;-78
2023/05/13 09:44:25;;;;;;;;;53.25;42.50;;;;;18.89;100.00;101816.84;5031644;28;46686;-79
2023/05/13 09:46:52;;;;;;;;;52.00;40.00;;;;;18.98;100.00;101824.81;5033386;28;70142;-77
2023/05/13 09:49:18;;;;;;;;;50.25;40.25;;;;;19.06;100.00;101811.38;5042239;28;45483;-80
2023/05/13 09:51:44;;;;;;;;;53.25;41.50;;;;;19.15;100.00;101819.31;5027783;28;45368;-77
2023/05/13 09:54:10;;;;;;;;;51.00;41.50;;;;;19.27;100.00;101811.16;5026001;28;45406;-78
2023/05/13 09:56:36;;;;;;;;;50.75;40.00;;;;;19.32;100.00;101809.34;5025566;28;66526;-78
2023/05/13 09:59:02;;;;;;;;;55.25;41.50;;;;;19.34;100.00;101809.34;5032589;28;45447;-77
2023/05/13 10:01:28;;;;;;;;;49.50;38.75;;;;;19.31;100.00;101812.94;5031683;28;45501;-77
2023/05/13 10:03:55;;;;;;;;;50.00;40.50;;;;;19.41;100.00;101815.53;5035997;28;45544;-80
2023/05/13 10:06:22;;;;;;;;;49.25;39.25;;;;;19.49;100.00;101806.50;5031901;28;45466;-78
2023/05/13 10:08:50;;;;;;;;;55.50;45.00;;;;;19.52;100.00;101813.63;5034557;28;45626;-79
2023/05/13 10:11:16;;;;;;;;;53.25;40.75;;;;;19.46;100.00;101802.97;5053265;28;45360;-79
2023/05/13 10:13:42;;;;;;;;;56.25;39.00;;;;;19.45;100.00;101810.13;5034940;28;45723;-78
2023/05/13 10:16:08;;;;;;;;;47.25;37.75;;;;;19.38;100.00;101806.59;5025003;28;45374;-79
2023/05/13 10:18:33;;;;;;;;;46.00;37.50;;;;;19.30;100.00;101803.13;5031225;28;45345;-78
2023/05/13 10:20:59;;;;;;;;;47.25;37.75;;;;;19.25;100.00;101804.06;5037135;28;45506;-79
2023/05/13 10:23:26;;;;;;;;;46.00;38.25;;;;;19.14;100.00;101811.31;5030335;28;46458;-78
2023/05/13 10:25:52;;;;;;;;;47.75;38.00;;;;;19.03;100.00;101804.25;5034638;28;45586;-78
2023/05/13 10:28:18;;;;;;;;;48.75;37.50;;;;;18.96;100.00;101802.56;5035498;28;45350;-81
2023/05/13 10:30:44;;;;;;;;;44.50;37.25;;;;;18.94;100.00;101804.31;5034931;28;45628;-80
2023/05/13 10:33:09;;;;;;;;;44.00;35.25;;;;;18.90;100.00;101794.53;5048299;28;68177;-80
2023/05/13 10:35:37;;;;;;;;;47.00;38.25;;;;;18.90;100.00;101790.97;5040460;28;45703;-77
2023/05/13 10:38:18;;;;;;;;;47.00;39.00;;;;;18.88;100.00;101787.44;5034098;28;45537;-78
2023/05/13 10:40:46;;;;;;;;;43.50;35.50;;;;;18.87;100.00;101783.00;5035752;28;45387;-82
2023/05/13 10:43:21;;;;;;;;;47.50;35.25;;;;;18.85;100.00;101782.97;5026529;28;45522;-78
2023/05/13 10:45:51;;;;;;;;;49.00;38.25;;;;;18.85;100.00;101782.97;5023722;28;45586;-78
2023/05/13 10:48:17;;;;;;;;;51.25;40.00;;;;;18.88;100.00;101782.97;5032249;28;45422;-78
2023/05/13 10:51:02;;;;;;;;;48.50;40.75;;;;;18.90;100.00;101775.81;5029449;28;45589;-82
2023/05/13 10:53:30;;;;;;;;;47.75;40.25;;;;;18.93;100.00;101777.59;5033485;28;46622;-80
2023/05/13 10:55:58;;;;;;;;;47.75;38.75;;;;;18.94;100.00;101774.88;5032473;28;45418;-73
2023/05/13 10:58:29;;;;;;;;;48.75;38.75;;;;;18.99;100.00;101766.81;5031521;28;45316;-73
2023/05/13 11:01:11;;;;;;;;;59.25;44.25;;;;;19.05;100.00;101759.63;5037729;28;45462;-73